Weather at Amherst Heliport

Public forecast

Using degrees Celsius for public forecast. Weather courtesy of forecast.io.

Closest aviation weather report (METAR) to Amherst Heliport

Closest report is Greater Moncton Roméo LeBlanc International Airport, 26.3 nm (48.7 km) NW.

2024/07/24 21:00 (retrieved 25 minutes ago)

CYQM 242100Z 07004KT 15SM FEW020TCU BKN035 BKN070 22/16 A3020 RMK TCU2SC4AC1 SLP228 DENSITY ALT 900FT

Closest aviation forecast (TAF) to Amherst Heliport

Closest forecast is Greater Moncton Roméo LeBlanc International Airport, 26.3 nm (48.7 km) NW.

2024/07/24 20:21 Ammendment (retrieved 1 hour ago)

TAF AMD CYQM 242018Z 2420/2518 06006KT P6SM SCT020 BKN080 TEMPO 2420/2422 P6SM -SHRA BKN020 FM242200 07006KT P6SM BKN040 TEMPO 2422/2504 SCT040 FM250400 15006KT P6SM FEW008 FEW030 FM250700 17006KT P6SM FEW008 BKN030 BECMG 2510/2512 17012KT BKN060 BKN180 RMK NXT FCST BY 250000Z